Time;durP1;ratioP1;P1;durP2;ratioP2;P2;SDS_P1;SDS_P2;PMS_P1;PMS_P2;Temp;Humidity;BMP_temperature;BMP_pressure;BME280_temperature;BME280_humidity;BME280_pressure;Samples;Min_cycle;Max_cycle;Signal;HPM_P1;HPM_P2
2021/01/19 00:01:27;;;;;;;0.00;0.00;;;;;;;9.85;90.04;99819.44;4918741;29;20063;-79
2021/01/19 00:03:55;;;;;;;0.30;0.10;;;;;;;9.87;90.00;99825.44;4897878;29;20043;-80
2021/01/19 00:06:20;;;;;;;0.00;0.00;;;;;;;9.85;89.55;99796.78;4890651;29;20067;-78
2021/01/19 00:08:46;;;;;;;0.47;0.10;;;;;;;10.02;90.32;99810.13;4900680;29;20094;-79
2021/01/19 00:11:11;;;;;;;0.20;0.10;;;;;;;9.95;89.59;99803.03;4901718;29;20036;-78
2021/01/19 00:13:39;;;;;;;0.47;0.00;;;;;;;9.87;89.70;99792.69;4908592;29;20032;-80
2021/01/19 00:16:05;;;;;;;0.10;0.00;;;;;;;9.89;90.32;99785.00;4907676;29;22624;-80
2021/01/19 00:18:30;;;;;;;0.45;0.00;;;;;;;9.78;89.91;99770.56;4912812;29;20145;-81
2021/01/19 00:20:58;;;;;;;0.00;0.00;;;;;;;9.87;90.14;99779.03;4885990;29;20032;-81
2021/01/19 00:23:24;;;;;;;0.10;0.10;;;;;;;9.86;90.06;99761.00;4912936;29;20049;-83
2021/01/19 00:25:49;;;;;;;0.43;0.10;;;;;;;9.90;89.81;99767.53;4902104;29;20503;-81
2021/01/19 00:28:20;;;;;;;0.10;0.00;;;;;;;9.93;90.08;99766.19;4925607;29;20055;-80
2021/01/19 00:30:48;;;;;;;1.55;0.10;;;;;;;9.82;89.79;99742.72;4916057;29;20017;-80
2021/01/19 00:33:17;;;;;;;0.38;0.20;;;;;;;9.98;90.22;99751.69;4902841;29;20048;-81
2021/01/19 00:35:42;;;;;;;0.13;0.00;;;;;;;9.99;90.32;99769.69;4899250;29;20036;-80
2021/01/19 00:38:09;;;;;;;2.08;0.20;;;;;;;10.06;89.89;99775.66;4892390;29;20056;-81
2021/01/19 00:40:38;;;;;;;0.00;0.00;;;;;;;10.05;89.77;99738.53;4917091;29;20017;-79
2021/01/19 00:43:06;;;;;;;0.10;0.10;;;;;;;10.07;89.72;99722.69;4891742;29;20032;-78
2021/01/19 00:45:31;;;;;;;0.50;0.10;;;;;;;10.03;90.36;99732.53;4900485;29;20032;-79
2021/01/19 00:47:57;;;;;;;1.55;0.10;;;;;;;9.92;89.87;99713.44;4896019;29;20077;-80
2021/01/19 00:50:22;;;;;;;0.20;0.10;;;;;;;10.01;90.73;99740.19;4882727;29;20589;-80
2021/01/19 00:52:48;;;;;;;0.63;0.10;;;;;;;9.98;90.22;99700.59;4895060;29;20033;-78
2021/01/19 00:55:15;;;;;;;3.05;0.13;;;;;;;9.88;90.46;99706.91;4866618;29;20032;-77
2021/01/19 00:57:43;;;;;;;0.03;0.03;;;;;;;9.93;89.87;99690.50;4897650;29;20499;-77
2021/01/19 01:00:09;;;;;;;0.10;0.10;;;;;;;9.93;89.74;99690.50;4904118;29;20113;-78
2021/01/19 01:02:36;;;;;;;0.40;0.13;;;;;;;10.09;89.78;99698.63;4901420;29;20035;-76
2021/01/19 01:05:06;;;;;;;0.00;0.00;;;;;;;10.19;89.82;99698.59;4894835;29;20029;-76
2021/01/19 01:07:41;;;;;;;0.68;0.08;;;;;;;10.12;90.15;99681.69;4892385;29;20047;-77
2021/01/19 01:10:12;;;;;;;0.15;0.00;;;;;;;10.14;90.11;99698.59;4894695;29;20164;-78
2021/01/19 01:12:43;;;;;;;0.00;0.00;;;;;;;10.11;90.05;99685.50;4908506;29;20168;-77
2021/01/19 01:15:10;;;;;;;0.10;0.10;;;;;;;10.06;89.97;99660.94;4893863;29;20032;-79
2021/01/19 01:17:36;;;;;;;1.33;0.10;;;;;;;10.23;89.91;99687.91;4906491;29;20036;-79
2021/01/19 01:20:07;;;;;;;0.00;0.00;;;;;;;10.13;90.17;99650.53;4894029;29;20032;-78
2021/01/19 01:22:45;;;;;;;0.22;0.08;;;;;;;10.24;89.73;99668.50;4879553;29;20392;-78
2021/01/19 01:25:15;;;;;;;0.00;0.00;;;;;;;10.28;90.07;99666.84;4898887;29;20028;-80
2021/01/19 01:27:42;;;;;;;0.10;0.10;;;;;;;10.26;89.97;99658.09;4878907;29;20040;-79
2021/01/19 01:30:09;;;;;;;0.65;0.10;;;;;;;10.34;89.60;99664.09;4920586;29;20068;-79
2021/01/19 01:32:49;;;;;;;0.35;0.00;;;;;;;10.43;90.18;99670.63;4917223;29;20046;-79
2021/01/19 01:35:15;;;;;;;0.32;0.05;;;;;;;10.33;89.38;99676.13;4922033;29;20032;-78
2021/01/19 01:37:50;;;;;;;0.10;0.10;;;;;;;10.40;89.83;99649.31;4914335;29;21230;-78
2021/01/19 01:40:18;;;;;;;0.57;0.10;;;;;;;10.35;89.54;99661.06;4904237;29;20459;-77
2021/01/19 01:42:44;;;;;;;2.65;0.15;;;;;;;10.35;90.12;99646.59;4909427;29;20494;-77
2021/01/19 01:45:10;;;;;;;3.30;0.10;;;;;;;10.36;90.00;99637.31;4909814;29;20036;-78
2021/01/19 01:47:38;;;;;;;0.10;0.05;;;;;;;10.36;90.12;99631.84;4912926;29;20028;-79
2021/01/19 01:50:08;;;;;;;0.10;0.03;;;;;;;10.50;89.81;99649.25;4903611;29;20032;-77
2021/01/19 01:52:33;;;;;;;0.50;0.10;;;;;;;10.58;89.64;99656.81;4928223;29;20371;-78
2021/01/19 01:55:00;;;;;;;0.38;0.10;;;;;;;10.47;89.86;99627.94;4929068;29;20036;-77
2021/01/19 01:57:25;;;;;;;4.50;0.40;;;;;;;10.50;89.76;99616.44;4920136;29;20035;-76
2021/01/19 01:59:58;;;;;;;0.32;0.32;;;;;;;10.64;89.80;99633.00;4926093;29;20020;-78
2021/01/19 02:02:24;;;;;;;0.90;0.68;;;;;;;10.56;90.19;99619.97;4949983;29;20024;-76
2021/01/19 02:04:49;;;;;;;1.02;0.20;;;;;;;10.67;89.97;99637.88;4936967;29;20366;-77
2021/01/19 02:07:25;;;;;;;2.03;0.30;;;;;;;10.68;90.05;99627.78;4944112;29;20053;-77
2021/01/19 02:10:08;;;;;;;1.48;0.40;;;;;;;10.70;90.10;99622.84;4934606;29;20558;-74
2021/01/19 02:12:43;;;;;;;3.70;0.30;;;;;;;10.61;90.27;99617.97;4912763;29;20082;-76
2021/01/19 02:15:09;;;;;;;4.90;0.28;;;;;;;10.69;90.24;99629.41;4919403;29;20164;-73
2021/01/19 02:17:44;;;;;;;0.95;0.15;;;;;;;10.75;89.84;99622.81;4892328;29;20080;-75
2021/01/19 02:20:49;;;;;;;0.55;0.30;;;;;;;10.80;89.65;99617.28;4900219;29;20054;-75
2021/01/19 02:23:22;;;;;;;0.17;0.17;;;;;;;10.81;89.69;99616.19;4915694;29;20034;-75
2021/01/19 02:25:47;;;;;;;5.40;0.32;;;;;;;10.80;89.63;99625.47;4913725;29;20846;-75
2021/01/19 02:28:39;;;;;;;0.50;0.38;;;;;;;10.86;89.88;99612.56;4938858;28;20031;-74
2021/01/19 02:31:21;;;;;;;2.40;0.30;;;;;;;10.85;90.02;99600.00;4916089;29;20032;-74
2021/01/19 02:34:06;;;;;;;4.40;0.38;;;;;;;10.86;89.98;99601.63;4920148;29;20046;-74
2021/01/19 02:36:55;;;;;;;4.28;0.28;;;;;;;10.85;89.80;99603.56;4915216;29;20772;-75
2021/01/19 02:39:29;;;;;;;1.08;0.20;;;;;;;10.75;89.50;99576.31;4914413;29;20015;-74
2021/01/19 02:41:56;;;;;;;0.17;0.17;;;;;;;10.82;89.54;99587.72;4928845;28;20031;-74
2021/01/19 02:44:29;;;;;;;0.43;0.20;;;;;;;10.80;89.68;99587.19;4910615;29;20122;-74
2021/01/19 02:46:58;;;;;;;0.38;0.25;;;;;;;10.89;90.02;99607.34;4927511;29;20533;-75
2021/01/19 02:49:25;;;;;;;0.22;0.10;;;;;;;10.87;90.01;99586.88;4915515;29;20482;-74
2021/01/19 02:51:52;;;;;;;0.95;0.10;;;;;;;10.89;89.94;99590.91;4920633;29;20023;-75
2021/01/19 02:54:19;;;;;;;0.93;0.17;;;;;;;10.78;89.62;99562.88;4925941;29;20067;-76
2021/01/19 02:56:44;;;;;;;2.85;0.10;;;;;;;10.88;89.33;99586.56;4925194;29;20079;-75
2021/01/19 02:59:32;;;;;;;0.47;0.20;;;;;;;10.88;89.81;99574.81;4914092;29;20028;-76
2021/01/19 03:02:09;;;;;;;0.43;0.17;;;;;;;10.88;89.50;99563.84;4917668;29;20028;-75
2021/01/19 03:04:36;;;;;;;0.57;0.00;;;;;;;10.76;89.59;99564.25;4928028;29;20035;-75
2021/01/19 03:07:05;;;;;;;0.35;0.17;;;;;;;10.80;89.79;99565.31;4915936;29;20038;-75
2021/01/19 03:09:36;;;;;;;1.05;0.13;;;;;;;10.78;90.13;99567.53;4906277;29;20177;-75
2021/01/19 03:12:09;;;;;;;0.10;0.10;;;;;;;10.79;89.57;99552.72;4925757;29;20201;-76
2021/01/19 03:14:36;;;;;;;0.03;0.00;;;;;;;10.84;89.81;99571.84;4927016;29;20036;-75
2021/01/19 03:17:07;;;;;;;0.88;0.85;;;;;;;10.80;89.39;99562.56;4936325;29;20505;-76
2021/01/19 03:19:41;;;;;;;0.30;0.10;;;;;;;10.92;89.50;99584.06;4932233;29;20023;-75
2021/01/19 03:22:08;;;;;;;0.10;0.10;;;;;;;10.87;89.18;99576.72;4930512;29;20027;-77
2021/01/19 03:24:34;;;;;;;0.25;0.20;;;;;;;10.90;89.85;99589.81;4930639;29;20542;-78
2021/01/19 03:26:59;;;;;;;0.08;0.08;;;;;;;10.92;89.54;99590.38;4913938;29;20050;-78
2021/01/19 03:29:25;;;;;;;0.47;0.28;;;;;;;10.91;89.60;99582.47;4925886;29;20483;-78
2021/01/19 03:31:50;;;;;;;0.30;0.10;;;;;;;10.94;89.61;99576.41;4932084;29;20109;-78
2021/01/19 03:34:16;;;;;;;0.25;0.10;;;;;;;10.88;89.61;99589.31;4915566;29;20094;-78
2021/01/19 03:36:41;;;;;;;0.15;0.10;;;;;;;10.93;89.57;99588.44;4899016;29;20035;-77
2021/01/19 03:39:08;;;;;;;1.85;0.55;;;;;;;10.97;89.61;99589.50;4900623;29;20098;-76
2021/01/19 03:41:34;;;;;;;0.10;0.10;;;;;;;10.95;89.42;99592.53;4924199;29;20043;-75
2021/01/19 03:43:59;;;;;;;3.35;0.30;;;;;;;10.97;89.38;99576.63;4925434;29;20031;-76
2021/01/19 03:46:25;;;;;;;1.10;0.10;;;;;;;10.96;89.55;99585.94;4930640;29;20035;-75
2021/01/19 03:48:52;;;;;;;1.45;0.10;;;;;;;10.97;89.48;99598.50;4927695;29;20051;-76
2021/01/19 03:51:18;;;;;;;0.30;0.10;;;;;;;10.97;89.27;99582.09;4933860;29;20027;-74
2021/01/19 03:53:43;;;;;;;0.25;0.17;;;;;;;11.02;89.32;99588.63;4927014;29;20386;-76
2021/01/19 03:56:09;;;;;;;0.10;0.10;;;;;;;11.03;89.37;99599.28;4933158;29;20039;-75
2021/01/19 03:58:35;;;;;;;0.10;0.10;;;;;;;11.03;89.42;99593.81;4939808;29;20046;-72
2021/01/19 04:01:00;;;;;;;0.43;0.20;;;;;;;10.98;89.18;99585.63;4921289;29;20021;-73
2021/01/19 04:03:26;;;;;;;0.10;0.10;;;;;;;10.99;89.17;99588.13;4937792;29;20053;-74
2021/01/19 04:05:51;;;;;;;0.22;0.10;;;;;;;10.98;89.51;99575.53;4930332;29;20032;-74
2021/01/19 04:08:17;;;;;;;1.30;0.10;;;;;;;10.95;88.82;99581.59;4899925;29;20055;-77
2021/01/19 04:10:48;;;;;;;0.13;0.10;;;;;;;10.98;89.38;99571.97;4941326;29;20107;-78
2021/01/19 04:13:15;;;;;;;1.00;0.10;;;;;;;10.93;89.27;99567.38;4914206;29;20104;-77
2021/01/19 04:15:41;;;;;;;0.20;0.10;;;;;;;10.96;89.63;99580.47;4933811;29;20104;-78
2021/01/19 04:18:14;;;;;;;1.63;0.38;;;;;;;10.99;89.08;99566.22;4933643;29;20031;-78
2021/01/19 04:20:40;;;;;;;0.13;0.13;;;;;;;10.99;89.15;99571.69;4932542;29;20016;-77
2021/01/19 04:23:05;;;;;;;0.95;0.20;;;;;;;10.92;88.99;99551.25;4937286;29;20102;-75
2021/01/19 04:25:31;;;;;;;0.30;0.10;;;;;;;10.95;89.16;99556.97;4932746;29;20459;-79
2021/01/19 04:27:57;;;;;;;0.75;0.10;;;;;;;10.96;89.11;99564.03;4949701;29;20031;-79
2021/01/19 04:30:23;;;;;;;0.03;0.00;;;;;;;11.02;88.89;99561.28;4923704;28;20036;-77
2021/01/19 04:32:51;;;;;;;1.65;0.10;;;;;;;10.95;89.04;99551.50;4938968;29;20052;-78
2021/01/19 04:35:16;;;;;;;0.10;0.03;;;;;;;10.96;88.83;99564.03;4937599;29;20027;-77
2021/01/19 04:37:42;;;;;;;0.63;0.20;;;;;;;10.98;88.83;99572.78;4931478;29;20024;-77
2021/01/19 04:40:09;;;;;;;0.43;0.10;;;;;;;11.02;88.97;99561.28;4925141;29;20115;-77
2021/01/19 04:42:36;;;;;;;1.77;0.32;;;;;;;11.00;89.18;99567.84;4917504;29;20040;-76
2021/01/19 04:45:07;;;;;;;0.50;0.10;;;;;;;11.04;88.99;99559.03;4904055;29;20119;-76
2021/01/19 04:47:34;;;;;;;0.10;0.10;;;;;;;10.98;89.10;99561.84;4908917;29;20036;-77
2021/01/19 04:50:05;;;;;;;0.05;0.03;;;;;;;11.04;88.99;99554.41;4928022;29;20036;-76
2021/01/19 04:52:32;;;;;;;0.00;0.00;;;;;;;11.02;88.73;99553.88;4906907;29;20027;-76
2021/01/19 04:55:07;;;;;;;6.22;0.10;;;;;;;10.94;89.17;99547.13;4915674;29;20127;-79
2021/01/19 04:57:35;;;;;;;0.00;0.00;;;;;;;10.95;89.04;99567.91;4926665;29;20016;-78
2021/01/19 05:00:08;;;;;;;1.17;0.00;;;;;;;10.99;88.73;99558.03;4923941;29;20031;-78
2021/01/19 05:03:03;;;;;;;1.20;0.63;;;;;;;10.99;88.64;99574.44;4919584;29;20044;-79
2021/01/19 05:05:48;;;;;;;0.10;0.00;;;;;;;10.99;89.07;99560.75;4913036;29;20042;-78
2021/01/19 05:08:17;;;;;;;;;;;;;;;11.00;88.85;99565.09;4937308;29;20034;-79
2021/01/19 05:10:59;;;;;;;0.20;0.00;;;;;;;10.90;88.67;99556.19;4922692;29;20366;-77
2021/01/19 05:13:55;;;;;;;0.40;0.20;;;;;;;10.97;88.68;99565.69;4941196;29;20055;-77
2021/01/19 05:16:35;;;;;;;0.13;0.00;;;;;;;10.90;88.85;99548.81;4907613;29;20016;-78
2021/01/19 05:19:04;;;;;;;0.52;0.10;;;;;;;10.93;88.69;99550.94;4907957;29;20104;-78
2021/01/19 05:21:29;;;;;;;1.98;0.20;;;;;;;10.92;88.76;99568.50;4915179;29;20044;-78
2021/01/19 05:23:56;;;;;;;0.25;0.10;;;;;;;10.83;88.59;99542.84;4926439;29;20463;-78
2021/01/19 05:26:21;;;;;;;0.00;0.00;;;;;;;10.87;88.59;99554.84;4909540;29;20395;-75
2021/01/19 05:28:49;;;;;;;1.20;0.52;;;;;;;10.88;88.69;99551.03;4916419;29;20035;-75
2021/01/19 05:31:15;;;;;;;0.17;0.00;;;;;;;10.88;89.01;99556.50;4927252;29;20043;-76
2021/01/19 05:33:54;;;;;;;0.10;0.00;;;;;;;10.86;88.73;99555.94;4931393;29;20083;-75
2021/01/19 05:36:36;;;;;;;0.10;0.10;;;;;;;10.81;88.59;99551.34;4926281;29;20039;-78
2021/01/19 05:39:03;;;;;;;0.25;0.10;;;;;;;10.85;88.63;99557.06;4942083;29;20027;-78
2021/01/19 05:41:50;;;;;;;0.75;0.47;;;;;;;10.81;88.85;99561.47;4913593;29;20386;-76
2021/01/19 05:44:25;;;;;;;0.10;0.00;;;;;;;10.98;88.45;99572.78;4933857;29;20020;-73
2021/01/19 05:47:02;;;;;;;0.08;0.03;;;;;;;10.95;88.41;99573.38;4906298;29;20027;-78
2021/01/19 05:49:43;;;;;;;0.00;0.00;;;;;;;11.00;88.41;99567.84;4930366;29;20652;-79
2021/01/19 05:52:13;;;;;;;1.25;0.00;;;;;;;11.00;88.48;99573.31;4925700;29;20474;-78
2021/01/19 05:54:43;;;;;;;1.08;0.10;;;;;;;10.98;88.40;99561.84;4928190;29;20083;-77
2021/01/19 05:57:16;;;;;;;0.15;0.00;;;;;;;10.90;88.13;99569.88;4928372;29;20478;-79
2021/01/19 05:59:47;;;;;;;3.60;0.00;;;;;;;10.96;88.30;99561.31;4914653;29;20433;-79
2021/01/19 06:02:16;;;;;;;0.00;0.00;;;;;;;10.97;87.86;99546.53;4932944;29;20119;-78
2021/01/19 06:04:48;;;;;;;0.28;0.10;;;;;;;10.99;87.83;99558.03;4926322;29;20433;-78
2021/01/19 06:07:15;;;;;;;3.47;0.10;;;;;;;11.02;87.90;99553.88;4922343;29;20063;-78
2021/01/19 06:09:46;;;;;;;0.30;0.00;;;;;;;11.03;88.49;99554.69;4910846;29;20039;-79
2021/01/19 06:12:14;;;;;;;0.20;0.00;;;;;;;11.13;88.08;99568.28;4932469;29;20027;-78
2021/01/19 06:14:47;;;;;;;0.00;0.00;;;;;;;11.07;87.68;99553.00;4931742;29;20035;-77
2021/01/19 06:17:14;;;;;;;0.00;0.00;;;;;;;11.06;87.38;99545.91;4930815;29;20029;-77
2021/01/19 06:19:42;;;;;;;1.23;0.22;;;;;;;11.05;87.72;99547.81;4930216;29;20032;-77
2021/01/19 06:22:09;;;;;;;0.03;0.03;;;;;;;11.04;88.00;99548.09;4944863;29;20040;-76
2021/01/19 06:24:42;;;;;;;0.98;0.10;;;;;;;11.06;87.69;99556.84;4947223;29;20082;-78
2021/01/19 06:27:11;;;;;;;0.63;0.20;;;;;;;11.09;87.48;99556.28;4919897;29;20054;-79
2021/01/19 06:29:52;;;;;;;0.13;0.10;;;;;;;11.09;87.23;99537.13;4927344;28;20783;-78
2021/01/19 06:32:21;;;;;;;0.00;0.00;;;;;;;11.03;87.51;99568.38;4913968;29;20036;-78
2021/01/19 06:34:49;;;;;;;0.20;0.00;;;;;;;10.98;86.97;99548.19;4942078;29;20055;-78
2021/01/19 06:37:26;;;;;;;0.28;0.10;;;;;;;10.95;87.16;99532.34;4907238;29;20032;-78
2021/01/19 06:39:56;;;;;;;2.75;0.10;;;;;;;10.95;87.44;99537.81;4935367;29;20023;-78
2021/01/19 06:42:28;;;;;;;0.35;0.25;;;;;;;10.94;87.40;99527.97;4921038;29;20131;-78
2021/01/19 06:44:56;;;;;;;0.90;0.10;;;;;;;10.97;87.45;99532.84;4923371;29;20119;-79
2021/01/19 06:47:23;;;;;;;0.30;0.10;;;;;;;10.91;87.37;99550.44;4919135;29;20052;-79
2021/01/19 06:49:52;;;;;;;1.08;0.13;;;;;;;10.96;87.50;99553.09;4925423;29;20131;-78
2021/01/19 06:52:19;;;;;;;0.10;0.10;;;;;;;10.94;87.66;99543.59;4933578;29;20024;-77
2021/01/19 06:54:53;;;;;;;0.30;0.15;;;;;;;10.98;87.32;99539.13;4921697;29;20035;-76
2021/01/19 06:57:52;;;;;;;3.70;0.20;;;;;;;11.00;87.36;99537.75;4920483;29;20028;-77
2021/01/19 07:00:20;;;;;;;0.22;0.00;;;;;;;11.01;87.12;99555.00;4915991;29;20039;-76
2021/01/19 07:02:51;;;;;;;0.15;0.05;;;;;;;11.03;87.23;99547.31;4941597;29;20110;-78
2021/01/19 07:05:21;;;;;;;0.10;0.00;;;;;;;10.97;87.70;99543.00;4931119;29;20379;-76
2021/01/19 07:08:08;;;;;;;0.60;0.20;;;;;;;10.98;87.34;99550.91;4939569;29;20028;-77
2021/01/19 07:10:50;;;;;;;1.15;0.10;;;;;;;10.93;87.70;99585.72;4920016;29;20035;-78
2021/01/19 07:13:23;;;;;;;0.98;0.20;;;;;;;10.96;87.56;99558.56;4931554;29;20039;-79
2021/01/19 07:16:08;;;;;;;2.95;0.20;;;;;;;10.86;87.29;99546.94;4937270;29;20032;-77
2021/01/19 07:18:45;;;;;;;0.65;0.30;;;;;;;10.92;87.49;99559.44;4932647;29;20078;-74
2021/01/19 07:21:19;;;;;;;0.20;0.20;;;;;;;10.87;87.49;99552.13;4925964;29;20032;-72
2021/01/19 07:23:48;;;;;;;1.17;0.20;;;;;;;10.90;87.29;99570.69;4930798;29;20301;-75
2021/01/19 07:26:19;;;;;;;1.52;0.30;;;;;;;10.89;87.46;99555.38;4930767;29;20039;-77
2021/01/19 07:28:46;;;;;;;2.58;0.60;;;;;;;10.85;87.65;99562.53;4922647;29;20119;-79
2021/01/19 07:31:16;;;;;;;0.55;0.30;;;;;;;10.83;87.68;99570.19;4920352;29;20036;-79
2021/01/19 07:33:43;;;;;;;1.30;0.20;;;;;;;10.75;87.67;99557.19;4909572;29;20487;-79
2021/01/19 07:36:17;;;;;;;2.88;0.38;;;;;;;10.72;87.88;99558.56;4919978;29;20031;-79
2021/01/19 07:38:45;;;;;;;2.90;0.57;;;;;;;10.68;87.69;99557.50;4911858;29;20100;-79
2021/01/19 07:41:11;;;;;;;2.83;0.30;;;;;;;10.73;87.92;99564.84;4911367;29;20035;-81
2021/01/19 07:43:38;;;;;;;0.32;0.10;;;;;;;10.77;87.95;99560.44;4912450;29;20055;-81
2021/01/19 07:46:04;;;;;;;3.80;0.45;;;;;;;10.78;87.90;99567.53;4910466;29;20036;-81
2021/01/19 07:48:37;;;;;;;0.47;0.45;;;;;;;10.83;87.92;99559.25;4920306;29;20027;-80
2021/01/19 07:51:15;;;;;;;0.52;0.20;;;;;;;10.83;87.57;99562.00;4931516;29;20030;-80
2021/01/19 07:53:52;;;;;;;1.27;0.20;;;;;;;10.84;87.71;99560.91;4928847;29;20024;-78
2021/01/19 07:56:31;;;;;;;1.38;0.63;;;;;;;10.81;88.00;99558.75;4930157;29;20057;-80
2021/01/19 07:58:58;;;;;;;0.80;0.10;;;;;;;10.78;87.50;99567.53;4933915;29;20012;-80
2021/01/19 08:01:31;;;;;;;3.53;0.17;;;;;;;10.77;88.05;99554.97;4925805;29;20140;-79
2021/01/19 08:04:14;;;;;;;3.20;0.50;;;;;;;10.80;87.77;99562.56;4909970;29;20020;-81
2021/01/19 08:06:40;;;;;;;0.95;0.80;;;;;;;10.73;88.18;99564.84;4909641;29;20124;-80
2021/01/19 08:09:18;;;;;;;0.60;0.10;;;;;;;10.72;87.67;99564.03;4928914;29;20036;-81
2021/01/19 08:11:44;;;;;;;3.50;0.35;;;;;;;10.74;87.93;99566.47;4907327;29;20087;-76
2021/01/19 08:14:11;;;;;;;2.92;0.30;;;;;;;10.69;88.09;99574.72;4916519;29;20028;-78
2021/01/19 08:16:37;;;;;;;1.27;0.57;;;;;;;10.72;87.93;99565.94;4906803;29;20486;-79
2021/01/19 08:19:09;;;;;;;4.55;2.33;;;;;;;10.67;88.61;99560.53;4901958;29;20032;-80
2021/01/19 08:21:47;;;;;;;1.50;0.50;;;;;;;10.72;87.81;99574.13;4919310;29;20056;-80
2021/01/19 08:24:13;;;;;;;5.20;0.20;;;;;;;10.65;88.10;99566.28;4906663;29;20035;-80
2021/01/19 08:26:39;;;;;;;2.10;0.40;;;;;;;10.65;88.53;99575.28;4917667;29;20379;-80
2021/01/19 08:29:06;;;;;;;1.10;0.30;;;;;;;10.62;88.15;99564.94;4931767;28;20148;-80
2021/01/19 08:31:36;;;;;;;0.82;0.20;;;;;;;10.69;88.53;99580.19;4910137;29;20032;-80
2021/01/19 08:34:06;;;;;;;0.45;0.20;;;;;;;10.60;88.24;99556.22;4915877;29;20031;-79
2021/01/19 08:36:34;;;;;;;1.70;0.32;;;;;;;10.61;88.05;99555.09;4931353;29;20148;-80
2021/01/19 08:39:01;;;;;;;1.10;0.20;;;;;;;10.59;88.35;99560.03;4909556;29;20032;-78
2021/01/19 08:41:30;;;;;;;0.93;0.30;;;;;;;10.54;88.26;99549.16;4910139;29;20042;-79
2021/01/19 08:44:03;;;;;;;0.43;0.20;;;;;;;10.63;88.04;99561.09;4904439;29;20044;-79
2021/01/19 08:46:30;;;;;;;4.10;0.20;;;;;;;10.62;88.41;99569.59;4897751;29;20031;-81
2021/01/19 08:49:09;;;;;;;0.95;0.20;;;;;;;10.60;88.54;99569.88;4917119;29;20039;-82
2021/01/19 08:51:36;;;;;;;0.32;0.20;;;;;;;10.65;88.45;99569.81;4916528;29;20478;-80
2021/01/19 08:54:06;;;;;;;3.20;0.22;;;;;;;10.66;88.33;99556.97;4899502;29;20048;-81
2021/01/19 08:56:32;;;;;;;1.77;0.10;;;;;;;10.63;88.06;99555.63;4924034;29;20028;-81
2021/01/19 08:58:58;;;;;;;2.65;0.22;;;;;;;10.61;88.32;99541.41;4927626;29;20459;-81
2021/01/19 09:01:23;;;;;;;0.47;0.20;;;;;;;10.68;88.33;99556.69;4908297;29;20039;-82
2021/01/19 09:04:00;;;;;;;0.88;0.25;;;;;;;10.72;87.70;99546.78;4919642;29;20091;-81
2021/01/19 09:06:26;;;;;;;1.23;0.22;;;;;;;10.72;88.48;99552.25;4919697;29;20035;-81
2021/01/19 09:08:59;;;;;;;1.27;0.35;;;;;;;10.75;87.98;99546.22;4916862;29;20043;-80
2021/01/19 09:11:31;;;;;;;1.15;0.30;;;;;;;10.77;87.90;99544.03;4895406;29;20095;-78
2021/01/19 09:14:01;;;;;;;3.83;0.20;;;;;;;10.74;88.06;99534.47;4915713;29;20154;-80
2021/01/19 09:16:30;;;;;;;4.55;0.50;;;;;;;10.71;87.88;99539.72;4914198;29;20490;-78
2021/01/19 09:19:00;;;;;;;3.50;0.75;;;;;;;10.65;88.55;99537.00;4915908;29;20052;-78
2021/01/19 09:21:27;;;;;;;2.70;0.32;;;;;;;10.69;87.50;99541.91;4911189;29;20111;-79
2021/01/19 09:23:53;;;;;;;2.35;0.40;;;;;;;10.59;88.02;99531.91;4919517;29;20147;-78
2021/01/19 09:26:18;;;;;;;2.28;0.63;;;;;;;10.64;88.00;99540.88;4920428;29;20074;-77
2021/01/19 09:28:44;;;;;;;0.38;0.17;;;;;;;10.54;88.01;99535.50;4931439;29;20032;-79
2021/01/19 09:31:19;;;;;;;0.28;0.10;;;;;;;10.61;88.32;99540.59;4935961;29;20027;-80
2021/01/19 09:33:53;;;;;;;0.00;0.00;;;;;;;10.60;88.17;99528.03;4944009;29;20078;-80
2021/01/19 09:36:19;;;;;;;0.30;0.00;;;;;;;10.64;88.07;99523.63;4913811;29;20039;-78
2021/01/19 09:38:53;;;;;;;1.25;0.50;;;;;;;10.70;87.92;99522.47;4936360;29;20031;-78
2021/01/19 09:41:22;;;;;;;0.32;0.10;;;;;;;10.70;88.26;99524.41;4937960;29;20036;-76
2021/01/19 09:43:51;;;;;;;0.38;0.10;;;;;;;10.67;87.46;99516.78;4929600;29;20028;-77
2021/01/19 09:46:20;;;;;;;0.80;0.10;;;;;;;10.60;87.62;99517.09;4932821;29;20063;-77
2021/01/19 09:48:48;;;;;;;0.15;0.00;;;;;;;10.56;87.38;99514.16;4945084;29;20076;-78
2021/01/19 09:51:25;;;;;;;0.00;0.00;;;;;;;10.63;87.29;99506.41;4941026;29;20030;-79
2021/01/19 09:53:59;;;;;;;0.20;0.00;;;;;;;10.70;87.77;99529.88;4916002;29;20082;-78
2021/01/19 09:56:26;;;;;;;1.40;0.10;;;;;;;10.54;87.19;99512.78;4918366;29;20027;-78
2021/01/19 09:59:05;;;;;;;3.50;0.20;;;;;;;10.55;87.42;99509.78;4912150;29;20051;-79
2021/01/19 10:01:31;;;;;;;0.28;0.10;;;;;;;10.51;87.04;99522.38;4928946;29;20032;-78
2021/01/19 10:03:57;;;;;;;0.22;0.10;;;;;;;10.48;87.76;99531.16;4936906;29;20036;-77
2021/01/19 10:06:25;;;;;;;0.55;0.10;;;;;;;10.51;86.73;99519.66;4935080;29;20071;-81
2021/01/19 10:08:55;;;;;;;0.20;0.10;;;;;;;10.41;86.91;99515.09;4939953;29;20111;-81
2021/01/19 10:11:37;;;;;;;0.22;0.17;;;;;;;10.29;86.63;99515.44;4931620;29;20426;-80
2021/01/19 10:14:11;;;;;;;0.77;0.22;;;;;;;10.28;86.29;99521.22;4917321;29;20352;-81
2021/01/19 10:16:48;;;;;;;6.38;0.30;;;;;;;10.28;86.31;99530.22;4939438;29;20043;-81
2021/01/19 10:19:25;;;;;;;5.40;0.57;;;;;;;10.26;86.38;99547.97;4925788;29;20028;-79
2021/01/19 10:21:54;;;;;;;2.08;0.40;;;;;;;10.12;86.18;99539.63;4928538;29;20055;-78
2021/01/19 10:24:20;;;;;;;4.60;0.82;;;;;;;10.06;85.98;99535.28;4930928;29;20030;-78
2021/01/19 10:27:08;;;;;;;3.60;0.40;;;;;;;10.06;86.59;99538.03;4933849;29;20372;-77
2021/01/19 10:29:38;;;;;;;1.70;0.35;;;;;;;10.11;86.03;99538.00;4928679;29;20043;-79
2021/01/19 10:32:15;;;;;;;5.05;0.85;;;;;;;10.10;84.92;99530.88;4924799;29;20059;-79
2021/01/19 10:34:45;;;;;;;0.77;0.35;;;;;;;10.12;83.92;99523.25;4917172;29;20038;-77
2021/01/19 10:37:11;;;;;;;5.90;1.02;;;;;;;10.15;82.95;99522.66;4933564;29;20047;-78
2021/01/19 10:39:47;;;;;;;2.67;0.50;;;;;;;10.12;82.68;99517.78;4923959;29;20087;-79
2021/01/19 10:42:24;;;;;;;3.38;0.63;;;;;;;10.24;82.25;99525.59;4932971;29;20079;-76
2021/01/19 10:44:56;;;;;;;5.97;0.85;;;;;;;10.18;81.45;99524.00;4930518;29;20558;-77
2021/01/19 10:47:21;;;;;;;3.08;0.50;;;;;;;10.12;80.92;99575.16;4906304;29;20032;-77
2021/01/19 10:49:47;;;;;;;8.20;0.63;;;;;;;10.10;81.73;99525.44;4932429;29;20043;-78
2021/01/19 10:52:12;;;;;;;10.80;0.63;;;;;;;10.14;81.72;99529.22;4929934;29;20549;-77
2021/01/19 10:54:38;;;;;;;11.05;0.52;;;;;;;10.11;82.56;99527.06;4908983;29;20032;-77
2021/01/19 10:57:05;;;;;;;1.92;0.25;;;;;;;10.11;82.46;99499.75;4917991;29;20035;-77
2021/01/19 10:59:33;;;;;;;2.97;0.63;;;;;;;10.22;81.85;99501.31;4915891;29;20078;-77
2021/01/19 11:01:58;;;;;;;3.85;0.45;;;;;;;10.53;82.16;99490.13;4933017;29;20035;-77
2021/01/19 11:04:24;;;;;;;2.63;1.23;;;;;;;10.63;80.77;99483.72;4922270;29;20031;-77
2021/01/19 11:06:50;;;;;;;1.48;0.50;;;;;;;10.71;79.24;99468.63;4933751;29;20489;-77
2021/01/19 11:09:15;;;;;;;2.58;0.57;;;;;;;10.91;79.11;99443.75;4926897;29;20032;-75
2021/01/19 11:11:41;;;;;;;4.28;0.50;;;;;;;11.21;77.78;99452.69;4915353;29;20030;-77
2021/01/19 11:14:12;;;;;;;1.55;0.40;;;;;;;11.22;76.65;99446.09;4931172;29;20027;-77
2021/01/19 11:16:40;;;;;;;7.30;0.68;;;;;;;11.25;77.53;99461.94;4935530;29;20090;-78
2021/01/19 11:19:10;;;;;;;7.25;0.65;;;;;;;11.25;76.99;99445.50;4934370;29;20063;-77
2021/01/19 11:21:37;;;;;;;3.60;0.40;;;;;;;11.14;76.48;99461.25;4928803;29;20036;-76
2021/01/19 11:24:05;;;;;;;1.75;0.50;;;;;;;11.00;76.82;99457.59;4929316;29;20055;-78
2021/01/19 11:26:30;;;;;;;2.42;0.80;;;;;;;10.89;77.69;99462.38;4908011;29;20087;-77
2021/01/19 11:28:57;;;;;;;1.15;0.57;;;;;;;10.75;78.50;99450.53;4921224;28;20461;-76
2021/01/19 11:31:27;;;;;;;5.32;0.40;;;;;;;10.67;79.65;99448.41;4903130;29;20436;-76
2021/01/19 11:33:56;;;;;;;3.00;0.70;;;;;;;10.61;80.41;99443.00;4911261;29;20584;-76
2021/01/19 11:36:27;;;;;;;3.50;0.70;;;;;;;10.56;80.53;99450.47;4898354;29;20127;-75
2021/01/19 11:38:55;;;;;;;2.25;0.55;;;;;;;10.53;80.94;99434.63;4904870;29;20032;-76
2021/01/19 11:41:25;;;;;;;5.65;0.95;;;;;;;10.48;81.25;99439.06;4907141;29;20016;-80
2021/01/19 11:43:52;;;;;;;2.25;0.38;;;;;;;10.53;81.17;99440.91;4924199;29;20363;-79
2021/01/19 11:46:20;;;;;;;3.42;0.35;;;;;;;10.34;81.66;99442.75;4906012;29;20028;-79
2021/01/19 11:48:45;;;;;;;2.17;0.47;;;;;;;10.14;81.93;99426.22;4909222;29;20103;-78